sensor_id;sensor_type;location;lat;lon;timestamp;pressure;altitude;pressure_sealevel;temperature;humidity
72570;BME280;60594;50.204;8.844;2023-04-23T00:00:21;99243.88;;;11.82;100.00
72570;BME280;60594;50.204;8.844;2023-04-23T00:03:09;99254.47;;;11.91;100.00
72570;BME280;60594;50.204;8.844;2023-04-23T00:05:38;99252.81;;;11.90;100.00
72570;BME280;60594;50.204;8.844;2023-04-23T00:08:05;99258.81;;;11.92;100.00
72570;BME280;60594;50.204;8.844;2023-04-23T00:10:31;99254.28;;;11.85;100.00
72570;BME280;60594;50.204;8.844;2023-04-23T00:12:58;99254.41;;;11.83;100.00
72570;BME280;60594;50.204;8.844;2023-04-23T00:15:26;99245.78;;;11.89;100.00
72570;BME280;60594;50.204;8.844;2023-04-23T00:17:52;99256.59;;;11.88;100.00
72570;BME280;60594;50.204;8.844;2023-04-23T00:20:19;99262.03;;;11.96;100.00
72570;BME280;60594;50.204;8.844;2023-04-23T00:22:45;99258.38;;;11.97;100.00
72570;BME280;60594;50.204;8.844;2023-04-23T00:25:12;99250.16;;;11.90;100.00
72570;BME280;60594;50.204;8.844;2023-04-23T00:27:38;99252.97;;;11.89;100.00
72570;BME280;60594;50.204;8.844;2023-04-23T00:30:05;99249.22;;;11.82;100.00
72570;BME280;60594;50.204;8.844;2023-04-23T00:32:33;99244.25;;;11.87;100.00
72570;BME280;60594;50.204;8.844;2023-04-23T00:35:00;99239.31;;;11.74;100.00
72570;BME280;60594;50.204;8.844;2023-04-23T00:37:26;99252.66;;;11.74;100.00
72570;BME280;60594;50.204;8.844;2023-04-23T00:39:53;99250.69;;;11.76;100.00
72570;BME280;60594;50.204;8.844;2023-04-23T00:42:19;99245.66;;;11.73;100.00
72570;BME280;60594;50.204;8.844;2023-04-23T00:44:47;99249.75;;;11.68;100.00
72570;BME280;60594;50.204;8.844;2023-04-23T00:47:16;99249.09;;;11.66;100.00
72570;BME280;60594;50.204;8.844;2023-04-23T00:49:43;99249.75;;;11.68;100.00
72570;BME280;60594;50.204;8.844;2023-04-23T00:52:10;99250.06;;;11.65;100.00
72570;BME280;60594;50.204;8.844;2023-04-23T00:54:37;99251.47;;;11.59;100.00
72570;BME280;60594;50.204;8.844;2023-04-23T00:57:04;99242.34;;;11.62;100.00
72570;BME280;60594;50.204;8.844;2023-04-23T00:59:30;99240.28;;;11.56;100.00
72570;BME280;60594;50.204;8.844;2023-04-23T01:01:58;99249.66;;;11.60;100.00
72570;BME280;60594;50.204;8.844;2023-04-23T01:04:27;99245.19;;;11.60;100.00
72570;BME280;60594;50.204;8.844;2023-04-23T01:06:55;99239.25;;;11.66;100.00
72570;BME280;60594;50.204;8.844;2023-04-23T01:09:22;99242.09;;;11.55;100.00
72570;BME280;60594;50.204;8.844;2023-04-23T01:11:50;99237.63;;;11.56;100.00
72570;BME280;60594;50.204;8.844;2023-04-23T01:14:16;99240.44;;;11.54;100.00
72570;BME280;60594;50.204;8.844;2023-04-23T01:16:43;99239.59;;;11.54;100.00
72570;BME280;60594;50.204;8.844;2023-04-23T01:19:09;99238.63;;;11.55;100.00
72570;BME280;60594;50.204;8.844;2023-04-23T01:21:38;99242.88;;;11.48;100.00
72570;BME280;60594;50.204;8.844;2023-04-23T01:24:07;99249.03;;;11.48;100.00
72570;BME280;60594;50.204;8.844;2023-04-23T01:26:35;99245.00;;;11.44;100.00
72570;BME280;60594;50.204;8.844;2023-04-23T01:29:01;99246.91;;;11.52;100.00
72570;BME280;60594;50.204;8.844;2023-04-23T01:31:29;99253.00;;;11.44;100.00
72570;BME280;60594;50.204;8.844;2023-04-23T01:33:56;99252.41;;;11.50;100.00
72570;BME280;60594;50.204;8.844;2023-04-23T01:36:24;99251.63;;;11.40;100.00
72570;BME280;60594;50.204;8.844;2023-04-23T01:38:51;99251.63;;;11.40;100.00
72570;BME280;60594;50.204;8.844;2023-04-23T01:41:18;99254.75;;;11.36;100.00
72570;BME280;60594;50.204;8.844;2023-04-23T01:43:48;99256.75;;;11.34;100.00
72570;BME280;60594;50.204;8.844;2023-04-23T01:46:16;99263.59;;;11.36;100.00
72570;BME280;60594;50.204;8.844;2023-04-23T01:48:42;99252.63;;;11.39;100.00
72570;BME280;60594;50.204;8.844;2023-04-23T01:51:09;99257.88;;;11.31;100.00
72570;BME280;60594;50.204;8.844;2023-04-23T01:53:36;99258.31;;;11.27;100.00
72570;BME280;60594;50.204;8.844;2023-04-23T01:56:02;99255.09;;;11.23;100.00
72570;BME280;60594;50.204;8.844;2023-04-23T01:58:29;99260.44;;;11.23;100.00
72570;BME280;60594;50.204;8.844;2023-04-23T02:00:55;99263.09;;;11.23;100.00
72570;BME280;60594;50.204;8.844;2023-04-23T02:03:22;99267.47;;;11.24;100.00
72570;BME280;60594;50.204;8.844;2023-04-23T02:05:49;99270.38;;;11.31;100.00
72570;BME280;60594;50.204;8.844;2023-04-23T02:08:15;99273.03;;;11.31;100.00
72570;BME280;60594;50.204;8.844;2023-04-23T02:10:42;99278.28;;;11.23;100.00
72570;BME280;60594;50.204;8.844;2023-04-23T02:13:08;99280.59;;;11.35;100.00
72570;BME280;60594;50.204;8.844;2023-04-23T02:15:35;99282.47;;;11.25;100.00
72570;BME280;60594;50.204;8.844;2023-04-23T02:18:03;99281.47;;;11.26;100.00
72570;BME280;60594;50.204;8.844;2023-04-23T02:20:30;99282.84;;;11.30;100.00
72570;BME280;60594;50.204;8.844;2023-04-23T02:22:56;99285.78;;;11.37;100.00
72570;BME280;60594;50.204;8.844;2023-04-23T02:25:23;99273.75;;;11.33;100.00
72570;BME280;60594;50.204;8.844;2023-04-23T02:27:49;99280.19;;;11.30;100.00
72570;BME280;60594;50.204;8.844;2023-04-23T02:30:16;99275.38;;;11.16;100.00
72570;BME280;60594;50.204;8.844;2023-04-23T02:32:42;99278.66;;;11.28;100.00
72570;BME280;60594;50.204;8.844;2023-04-23T02:35:09;99282.78;;;11.22;100.00
72570;BME280;60594;50.204;8.844;2023-04-23T02:37:36;99282.09;;;11.20;100.00
72570;BME280;60594;50.204;8.844;2023-04-23T02:40:03;99280.66;;;11.26;100.00
72570;BME280;60594;50.204;8.844;2023-04-23T02:42:33;99287.97;;;11.24;100.00
72570;BME280;60594;50.204;8.844;2023-04-23T02:45:03;99278.53;;;11.29;100.00
72570;BME280;60594;50.204;8.844;2023-04-23T02:47:30;99284.00;;;11.28;100.00
72570;BME280;60594;50.204;8.844;2023-04-23T02:49:57;99286.06;;;11.16;100.00
72570;BME280;60594;50.204;8.844;2023-04-23T02:52:24;99279.63;;;11.09;100.00
72570;BME280;60594;50.204;8.844;2023-04-23T02:54:50;99274.16;;;11.11;100.00
72570;BME280;60594;50.204;8.844;2023-04-23T02:57:17;99286.28;;;11.23;100.00
72570;BME280;60594;50.204;8.844;2023-04-23T02:59:44;99279.81;;;11.25;100.00
72570;BME280;60594;50.204;8.844;2023-04-23T03:02:14;99284.78;;;11.20;100.00
72570;BME280;60594;50.204;8.844;2023-04-23T03:04:41;99286.66;;;11.28;100.00
72570;BME280;60594;50.204;8.844;2023-04-23T03:07:08;99279.66;;;11.27;100.00
72570;BME280;60594;50.204;8.844;2023-04-23T03:09:35;99281.34;;;11.28;100.00
72570;BME280;60594;50.204;8.844;2023-04-23T03:12:01;99287.81;;;11.25;100.00
72570;BME280;60594;50.204;8.844;2023-04-23T03:14:29;99280.81;;;11.24;100.00
72570;BME280;60594;50.204;8.844;2023-04-23T03:16:55;99286.50;;;11.12;100.00
72570;BME280;60594;50.204;8.844;2023-04-23T03:19:22;99285.63;;;11.11;100.00
72570;BME280;60594;50.204;8.844;2023-04-23T03:21:48;99281.44;;;11.09;100.00
72570;BME280;60594;50.204;8.844;2023-04-23T03:24:15;99286.06;;;11.16;100.00
72570;BME280;60594;50.204;8.844;2023-04-23T03:26:41;99289.16;;;11.12;100.00
72570;BME280;60594;50.204;8.844;2023-04-23T03:29:08;99288.31;;;11.11;100.00
72570;BME280;60594;50.204;8.844;2023-04-23T03:31:36;99286.50;;;11.12;100.00
72570;BME280;60594;50.204;8.844;2023-04-23T03:34:03;99295.31;;;11.12;100.00
72570;BME280;60594;50.204;8.844;2023-04-23T03:36:33;99292.41;;;11.06;100.00
72570;BME280;60594;50.204;8.844;2023-04-23T03:39:00;99283.81;;;11.12;100.00
72570;BME280;60594;50.204;8.844;2023-04-23T03:41:33;99283.81;;;11.12;100.00
72570;BME280;60594;50.204;8.844;2023-04-23T03:44:00;99295.50;;;11.01;100.00
72570;BME280;60594;50.204;8.844;2023-04-23T03:46:41;99293.13;;;11.08;100.00
72570;BME280;60594;50.204;8.844;2023-04-23T03:49:09;99289.31;;;11.10;100.00
72570;BME280;60594;50.204;8.844;2023-04-23T03:51:36;99287.16;;;11.14;100.00
72570;BME280;60594;50.204;8.844;2023-04-23T03:54:03;99283.13;;;11.10;100.00
72570;BME280;60594;50.204;8.844;2023-04-23T03:57:00;99278.41;;;11.04;100.00
72570;BME280;60594;50.204;8.844;2023-04-23T03:59:29;99281.00;;;11.13;100.00
72570;BME280;60594;50.204;8.844;2023-04-23T04:01:58;99285.78;;;11.10;100.00
72570;BME280;60594;50.204;8.844;2023-04-23T04:04:26;99298.41;;;11.17;100.00
72570;BME280;60594;50.204;8.844;2023-04-23T04:06:55;99298.59;;;11.06;100.00
72570;BME280;60594;50.204;8.844;2023-04-23T04:09:27;99295.16;;;11.14;100.00
72570;BME280;60594;50.204;8.844;2023-04-23T04:11:54;99298.97;;;11.11;100.00
72570;BME280;60594;50.204;8.844;2023-04-23T04:14:21;99299.31;;;10.99;100.00
72570;BME280;60594;50.204;8.844;2023-04-23T04:16:48;99294.84;;;10.99;100.00
72570;BME280;60594;50.204;8.844;2023-04-23T04:19:14;99304.13;;;10.95;100.00
72570;BME280;60594;50.204;8.844;2023-04-23T04:21:41;99297.22;;;11.02;100.00
72570;BME280;60594;50.204;8.844;2023-04-23T04:24:07;99287.69;;;11.00;100.00
72570;BME280;60594;50.204;8.844;2023-04-23T04:26:36;99300.84;;;11.01;100.00
72570;BME280;60594;50.204;8.844;2023-04-23T04:29:02;99294.84;;;10.99;100.00
72570;BME280;60594;50.204;8.844;2023-04-23T04:31:29;99293.88;;;10.91;100.00
72570;BME280;60594;50.204;8.844;2023-04-23T04:33:56;99289.66;;;10.98;100.00
72570;BME280;60594;50.204;8.844;2023-04-23T04:36:23;99294.31;;;10.96;100.00
72570;BME280;60594;50.204;8.844;2023-04-23T04:38:52;99296.50;;;11.00;100.00
72570;BME280;60594;50.204;8.844;2023-04-23T04:41:21;99304.75;;;11.07;100.00
72570;BME280;60594;50.204;8.844;2023-04-23T04:43:51;99305.69;;;11.15;100.00
72570;BME280;60594;50.204;8.844;2023-04-23T04:46:17;99305.84;;;11.14;100.00
72570;BME280;60594;50.204;8.844;2023-04-23T04:48:47;99303.97;;;10.97;100.00
72570;BME280;60594;50.204;8.844;2023-04-23T04:51:13;99309.31;;;10.97;100.00
72570;BME280;60594;50.204;8.844;2023-04-23T04:53:39;99306.53;;;10.89;100.00
72570;BME280;60594;50.204;8.844;2023-04-23T04:56:07;99303.88;;;10.89;100.00
72570;BME280;60594;50.204;8.844;2023-04-23T04:58:33;99302.72;;;10.91;100.00
72570;BME280;60594;50.204;8.844;2023-04-23T05:01:00;99303.13;;;10.96;100.00
72570;BME280;60594;50.204;8.844;2023-04-23T05:03:27;99304.78;;;10.97;100.00
72570;BME280;60594;50.204;8.844;2023-04-23T05:05:53;99307.41;;;11.07;100.00
72570;BME280;60594;50.204;8.844;2023-04-23T05:08:21;99312.91;;;11.05;100.00
72570;BME280;60594;50.204;8.844;2023-04-23T05:10:48;99310.53;;;11.02;100.00
72570;BME280;60594;50.204;8.844;2023-04-23T05:13:17;99321.78;;;10.96;100.00
72570;BME280;60594;50.204;8.844;2023-04-23T05:15:45;99315.91;;;10.93;100.00
72570;BME280;60594;50.204;8.844;2023-04-23T05:18:11;99320.22;;;11.03;100.00
72570;BME280;60594;50.204;8.844;2023-04-23T05:20:37;99312.75;;;11.07;100.00
72570;BME280;60594;50.204;8.844;2023-04-23T05:23:04;99323.25;;;11.08;100.00
72570;BME280;60594;50.204;8.844;2023-04-23T05:25:31;99326.50;;;11.12;100.00
72570;BME280;60594;50.204;8.844;2023-04-23T05:27:57;99330.03;;;11.03;100.00
72570;BME280;60594;50.204;8.844;2023-04-23T05:30:24;99324.78;;;11.20;100.00
72570;BME280;60594;50.204;8.844;2023-04-23T05:32:50;99318.44;;;11.21;100.00
72570;BME280;60594;50.204;8.844;2023-04-23T05:35:17;99320.09;;;11.22;100.00
72570;BME280;60594;50.204;8.844;2023-04-23T05:37:44;99329.00;;;11.13;100.00
72570;BME280;60594;50.204;8.844;2023-04-23T05:40:10;99326.34;;;11.13;100.00
72570;BME280;60594;50.204;8.844;2023-04-23T05:42:37;99318.63;;;11.10;100.00
72570;BME280;60594;50.204;8.844;2023-04-23T05:45:04;99317.78;;;11.10;100.00
72570;BME280;60594;50.204;8.844;2023-04-23T05:47:33;99323.69;;;11.13;100.00
72570;BME280;60594;50.204;8.844;2023-04-23T05:50:01;99331.22;;;11.18;100.00
72570;BME280;60594;50.204;8.844;2023-04-23T05:52:29;99334.19;;;11.15;100.00
72570;BME280;60594;50.204;8.844;2023-04-23T05:55:00;99336.91;;;11.05;100.00
72570;BME280;60594;50.204;8.844;2023-04-23T05:57:27;99336.31;;;11.11;100.00
72570;BME280;60594;50.204;8.844;2023-04-23T05:59:53;99339.91;;;11.20;100.00
72570;BME280;60594;50.204;8.844;2023-04-23T06:02:20;99336.97;;;11.23;100.00
72570;BME280;60594;50.204;8.844;2023-04-23T06:04:46;99334.16;;;11.24;100.00
72570;BME280;60594;50.204;8.844;2023-04-23T06:07:13;99330.09;;;11.20;100.00
72570;BME280;60594;50.204;8.844;2023-04-23T06:09:40;99349.75;;;11.19;100.00
72570;BME280;60594;50.204;8.844;2023-04-23T06:12:06;99333.59;;;11.21;100.00
72570;BME280;60594;50.204;8.844;2023-04-23T06:14:33;99337.97;;;11.22;100.00
72570;BME280;60594;50.204;8.844;2023-04-23T06:16:59;99334.72;;;11.18;100.00
72570;BME280;60594;50.204;8.844;2023-04-23T06:19:26;99330.56;;;11.33;100.00
72570;BME280;60594;50.204;8.844;2023-04-23T06:21:53;99329.66;;;11.52;100.00
72570;BME280;60594;50.204;8.844;2023-04-23T06:24:19;99324.22;;;11.44;100.00
72570;BME280;60594;50.204;8.844;2023-04-23T06:26:46;99332.31;;;11.52;100.00
72570;BME280;60594;50.204;8.844;2023-04-23T06:29:17;99329.50;;;11.53;100.00
72570;BME280;60594;50.204;8.844;2023-04-23T06:31:54;99338.13;;;11.65;100.00
72570;BME280;60594;50.204;8.844;2023-04-23T06:34:21;99327.31;;;11.66;100.00
72570;BME280;60594;50.204;8.844;2023-04-23T06:36:50;99332.97;;;11.54;100.00
72570;BME280;60594;50.204;8.844;2023-04-23T06:39:16;99328.00;;;11.41;100.00
72570;BME280;60594;50.204;8.844;2023-04-23T06:41:43;99313.56;;;11.44;100.00
72570;BME280;60594;50.204;8.844;2023-04-23T06:44:18;99319.47;;;11.38;100.00
72570;BME280;60594;50.204;8.844;2023-04-23T06:46:51;99314.59;;;11.51;100.00
72570;BME280;60594;50.204;8.844;2023-04-23T06:49:17;99319.88;;;11.70;100.00
72570;BME280;60594;50.204;8.844;2023-04-23T06:51:44;99311.78;;;11.79;100.00
72570;BME280;60594;50.204;8.844;2023-04-23T06:54:10;99315.81;;;11.83;100.00
72570;BME280;60594;50.204;8.844;2023-04-23T06:56:37;99325.19;;;12.05;100.00
72570;BME280;60594;50.204;8.844;2023-04-23T06:59:03;99327.50;;;12.00;100.00
72570;BME280;60594;50.204;8.844;2023-04-23T07:01:33;99332.53;;;12.03;100.00
72570;BME280;60594;50.204;8.844;2023-04-23T07:03:59;99331.69;;;12.02;100.00
72570;BME280;60594;50.204;8.844;2023-04-23T07:06:26;99332.34;;;12.04;100.00
72570;BME280;60594;50.204;8.844;2023-04-23T07:08:53;99329.69;;;12.22;100.00
72570;BME280;60594;50.204;8.844;2023-04-23T07:11:19;99324.03;;;12.25;100.00
72570;BME280;60594;50.204;8.844;2023-04-23T07:13:45;99326.03;;;12.23;100.00
72570;BME280;60594;50.204;8.844;2023-04-23T07:16:12;99316.34;;;12.22;100.00
72570;BME280;60594;50.204;8.844;2023-04-23T07:18:38;99317.41;;;12.29;100.00
72570;BME280;60594;50.204;8.844;2023-04-23T07:21:05;99302.94;;;12.39;100.00
72570;BME280;60594;50.204;8.844;2023-04-23T07:23:31;99302.53;;;12.52;100.00
72570;BME280;60594;50.204;8.844;2023-04-23T07:25:58;99308.06;;;12.58;100.00
72570;BME280;60594;50.204;8.844;2023-04-23T07:28:24;99309.28;;;12.64;100.00
72570;BME280;60594;50.204;8.844;2023-04-23T07:30:51;99286.38;;;12.61;100.00
72570;BME280;60594;50.204;8.844;2023-04-23T07:33:17;99289.94;;;12.70;100.00
72570;BME280;60594;50.204;8.844;2023-04-23T07:35:44;99294.31;;;12.79;100.00
72570;BME280;60594;50.204;8.844;2023-04-23T07:38:10;99295.41;;;12.94;100.00
72570;BME280;60594;50.204;8.844;2023-04-23T07:40:37;99282.34;;;13.16;98.24
72570;BME280;60594;50.204;8.844;2023-04-23T07:43:03;99286.22;;;13.22;93.54
72570;BME280;60594;50.204;8.844;2023-04-23T07:45:30;99298.91;;;13.28;91.89
72570;BME280;60594;50.204;8.844;2023-04-23T07:47:56;99294.06;;;13.23;95.31
72570;BME280;60594;50.204;8.844;2023-04-23T07:50:24;99301.03;;;13.08;92.00
72570;BME280;60594;50.204;8.844;2023-04-23T07:52:50;99314.53;;;12.99;94.18
72570;BME280;60594;50.204;8.844;2023-04-23T07:55:17;99313.22;;;13.03;92.94
72570;BME280;60594;50.204;8.844;2023-04-23T07:57:45;99301.97;;;12.99;95.51
72570;BME280;60594;50.204;8.844;2023-04-23T08:00:12;99292.91;;;13.26;95.07
72570;BME280;60594;50.204;8.844;2023-04-23T08:02:39;99299.69;;;13.54;91.22
72570;BME280;60594;50.204;8.844;2023-04-23T08:05:06;99302.22;;;13.63;89.59
72570;BME280;60594;50.204;8.844;2023-04-23T08:07:33;99300.72;;;13.69;89.32
72570;BME280;60594;50.204;8.844;2023-04-23T08:09:59;99302.69;;;13.51;89.63
72570;BME280;60594;50.204;8.844;2023-04-23T08:12:30;99295.47;;;13.51;89.92
72570;BME280;60594;50.204;8.844;2023-04-23T08:14:57;99299.88;;;13.68;89.34
72570;BME280;60594;50.204;8.844;2023-04-23T08:17:29;99292.88;;;13.84;89.82
72570;BME280;60594;50.204;8.844;2023-04-23T08:19:56;99289.38;;;13.99;87.88
72570;BME280;60594;50.204;8.844;2023-04-23T08:22:22;99290.88;;;14.10;87.20
72570;BME280;60594;50.204;8.844;2023-04-23T08:24:49;99294.41;;;14.18;87.40
72570;BME280;60594;50.204;8.844;2023-04-23T08:27:15;99295.38;;;14.09;85.46
72570;BME280;60594;50.204;8.844;2023-04-23T08:29:42;99290.38;;;13.98;86.74
72570;BME280;60594;50.204;8.844;2023-04-23T08:32:08;99282.66;;;13.71;85.60
72570;BME280;60594;50.204;8.844;2023-04-23T08:34:34;99282.69;;;13.87;86.10
72570;BME280;60594;50.204;8.844;2023-04-23T08:37:02;99278.34;;;14.10;84.93
72570;BME280;60594;50.204;8.844;2023-04-23T08:39:28;99279.38;;;14.25;83.74
72570;BME280;60594;50.204;8.844;2023-04-23T08:42:14;99279.84;;;14.29;81.62
72570;BME280;60594;50.204;8.844;2023-04-23T08:44:45;99285.06;;;14.22;80.49
72570;BME280;60594;50.204;8.844;2023-04-23T08:47:16;99282.22;;;14.24;81.80
72570;BME280;60594;50.204;8.844;2023-04-23T08:49:44;99288.53;;;13.99;80.58
72570;BME280;60594;50.204;8.844;2023-04-23T08:52:15;99280.31;;;14.16;80.84
72570;BME280;60594;50.204;8.844;2023-04-23T08:54:46;99278.66;;;14.55;78.64
72570;BME280;60594;50.204;8.844;2023-04-23T08:57:15;99275.28;;;14.69;79.94
72570;BME280;60594;50.204;8.844;2023-04-23T08:59:42;99280.56;;;14.93;77.45
72570;BME280;60594;50.204;8.844;2023-04-23T09:02:09;99269.09;;;15.07;76.27
72570;BME280;60594;50.204;8.844;2023-04-23T09:04:36;99270.72;;;15.24;76.65
72570;BME280;60594;50.204;8.844;2023-04-23T09:07:04;99267.53;;;15.59;75.71
72570;BME280;60594;50.204;8.844;2023-04-23T09:09:33;99272.25;;;16.02;72.81
72570;BME280;60594;50.204;8.844;2023-04-23T09:12:00;99264.59;;;16.14;71.22
72570;BME280;60594;50.204;8.844;2023-04-23T09:14:27;99266.38;;;15.99;72.47
72570;BME280;60594;50.204;8.844;2023-04-23T09:16:54;99266.22;;;16.23;72.66
72570;BME280;60594;50.204;8.844;2023-04-23T09:19:20;99262.38;;;16.40;69.02
72570;BME280;60594;50.204;8.844;2023-04-23T09:21:48;99256.09;;;16.47;69.13
72570;BME280;60594;50.204;8.844;2023-04-23T09:24:16;99258.41;;;16.65;68.11
72570;BME280;60594;50.204;8.844;2023-04-23T09:26:44;99250.56;;;16.41;69.54
72570;BME280;60594;50.204;8.844;2023-04-23T09:29:15;99256.34;;;16.52;69.33
72570;BME280;60594;50.204;8.844;2023-04-23T09:31:48;99249.81;;;16.69;69.55
72570;BME280;60594;50.204;8.844;2023-04-23T09:34:19;99249.50;;;17.08;70.05
72570;BME280;60594;50.204;8.844;2023-04-23T09:36:47;99248.31;;;17.25;68.68
72570;BME280;60594;50.204;8.844;2023-04-23T09:39:18;99241.66;;;17.57;67.72
72570;BME280;60594;50.204;8.844;2023-04-23T09:41:45;99243.00;;;17.17;67.21
72570;BME280;60594;50.204;8.844;2023-04-23T09:44:16;99245.00;;;17.30;67.64
72570;BME280;60594;50.204;8.844;2023-04-23T09:46:43;99237.66;;;17.38;67.42
72570;BME280;60594;50.204;8.844;2023-04-23T09:49:11;99241.34;;;17.66;67.88
72570;BME280;60594;50.204;8.844;2023-04-23T09:51:38;99231.69;;;17.57;66.33
72570;BME280;60594;50.204;8.844;2023-04-23T09:54:20;99230.03;;;17.98;64.27
72570;BME280;60594;50.204;8.844;2023-04-23T09:56:49;99236.91;;;17.80;63.62
72570;BME280;60594;50.204;8.844;2023-04-23T09:59:26;99228.63;;;17.60;64.74
72570;BME280;60594;50.204;8.844;2023-04-23T10:01:53;99235.47;;;17.63;64.40
72570;BME280;60594;50.204;8.844;2023-04-23T10:04:21;99228.97;;;17.22;65.18
72570;BME280;60594;50.204;8.844;2023-04-23T10:06:59;99226.22;;;17.01;65.97
72570;BME280;60594;50.204;8.844;2023-04-23T10:09:27;99219.28;;;16.77;67.00
72570;BME280;60594;50.204;8.844;2023-04-23T10:11:55;99219.16;;;17.00;69.05
72570;BME280;60594;50.204;8.844;2023-04-23T10:14:25;99220.59;;;17.31;68.86
72570;BME280;60594;50.204;8.844;2023-04-23T10:16:57;99217.03;;;16.95;67.70
72570;BME280;60594;50.204;8.844;2023-04-23T10:19:24;99209.75;;;16.23;68.33
72570;BME280;60594;50.204;8.844;2023-04-23T10:22:00;99210.69;;;16.30;67.98
72570;BME280;60594;50.204;8.844;2023-04-23T10:24:32;99205.25;;;16.81;67.39
72570;BME280;60594;50.204;8.844;2023-04-23T10:27:01;99208.16;;;17.30;63.72
72570;BME280;60594;50.204;8.844;2023-04-23T10:29:31;99207.91;;;17.25;63.36
72570;BME280;60594;50.204;8.844;2023-04-23T10:32:01;99210.31;;;17.56;60.60
72570;BME280;60594;50.204;8.844;2023-04-23T10:34:30;99213.28;;;17.25;59.57
72570;BME280;60594;50.204;8.844;2023-04-23T10:36:59;99209.53;;;16.91;62.73
72570;BME280;60594;50.204;8.844;2023-04-23T10:39:31;99210.28;;;16.70;62.90
72570;BME280;60594;50.204;8.844;2023-04-23T10:42:00;99210.81;;;16.80;62.97
72570;BME280;60594;50.204;8.844;2023-04-23T10:44:36;99216.50;;;16.85;63.63
72570;BME280;60594;50.204;8.844;2023-04-23T10:47:04;99197.84;;;16.83;64.82
72570;BME280;60594;50.204;8.844;2023-04-23T10:49:33;99194.13;;;16.55;64.61
72570;BME280;60594;50.204;8.844;2023-04-23T10:52:03;99188.38;;;16.58;65.05
72570;BME280;60594;50.204;8.844;2023-04-23T10:54:31;99190.53;;;16.63;66.33
72570;BME280;60594;50.204;8.844;2023-04-23T10:57:00;99188.56;;;16.86;66.30
72570;BME280;60594;50.204;8.844;2023-04-23T10:59:32;99186.59;;;16.95;64.26
72570;BME280;60594;50.204;8.844;2023-04-23T11:02:10;99185.00;;;17.00;63.04
72570;BME280;60594;50.204;8.844;2023-04-23T11:04:58;99180.31;;;17.23;62.81
72570;BME280;60594;50.204;8.844;2023-04-23T11:07:30;99185.94;;;17.28;62.36
72570;BME280;60594;50.204;8.844;2023-04-23T11:10:17;99178.91;;;17.42;61.05
72570;BME280;60594;50.204;8.844;2023-04-23T11:12:44;99172.72;;;17.48;61.86
72570;BME280;60594;50.204;8.844;2023-04-23T11:15:12;99172.72;;;17.48;60.69
72570;BME280;60594;50.204;8.844;2023-04-23T11:20:14;99175.97;;;17.79;60.46
72570;BME280;60594;50.204;8.844;2023-04-23T11:22:51;99168.00;;;17.50;59.14
72570;BME280;60594;50.204;8.844;2023-04-23T11:25:20;99166.06;;;17.65;58.13
72570;BME280;60594;50.204;8.844;2023-04-23T11:27:50;99166.41;;;17.55;59.97
72570;BME280;60594;50.204;8.844;2023-04-23T11:30:19;99158.19;;;17.63;60.20
72570;BME280;60594;50.204;8.844;2023-04-23T11:32:48;99147.50;;;17.34;59.06
72570;BME280;60594;50.204;8.844;2023-04-23T11:35:17;99148.88;;;17.45;60.68
72570;BME280;60594;50.204;8.844;2023-04-23T11:37:45;99151.84;;;17.50;60.48
72570;BME280;60594;50.204;8.844;2023-04-23T11:40:15;99148.97;;;17.51;58.39
72570;BME280;60594;50.204;8.844;2023-04-23T11:42:50;99143.16;;;17.19;60.37
72570;BME280;60594;50.204;8.844;2023-04-23T11:45:20;99140.22;;;17.14;61.95
72570;BME280;60594;50.204;8.844;2023-04-23T11:47:49;99132.75;;;16.95;60.38
72570;BME280;60594;50.204;8.844;2023-04-23T11:50:19;99130.88;;;16.95;63.05
72570;BME280;60594;50.204;8.844;2023-04-23T11:52:46;99120.09;;;16.74;60.68
72570;BME280;60594;50.204;8.844;2023-04-23T11:55:13;99125.28;;;16.61;61.96
72570;BME280;60594;50.204;8.844;2023-04-23T11:57:42;99119.94;;;16.46;61.84
72570;BME280;60594;50.204;8.844;2023-04-23T12:00:10;99121.97;;;16.44;63.05
72570;BME280;60594;50.204;8.844;2023-04-23T12:02:48;99114.63;;;16.53;62.92
72570;BME280;60594;50.204;8.844;2023-04-23T12:05:18;99112.06;;;16.45;64.21
72570;BME280;60594;50.204;8.844;2023-04-23T12:07:49;99111.88;;;16.46;62.92
72570;BME280;60594;50.204;8.844;2023-04-23T12:10:18;99108.78;;;16.35;62.84
72570;BME280;60594;50.204;8.844;2023-04-23T12:12:52;99110.06;;;16.24;62.47
72570;BME280;60594;50.204;8.844;2023-04-23T12:15:20;99096.28;;;16.27;64.19
72570;BME280;60594;50.204;8.844;2023-04-23T12:17:48;99098.13;;;16.27;64.48
72570;BME280;60594;50.204;8.844;2023-04-23T12:20:17;99099.31;;;16.39;64.40
72570;BME280;60594;50.204;8.844;2023-04-23T12:22:44;99102.09;;;16.31;63.76
72570;BME280;60594;50.204;8.844;2023-04-23T12:25:10;99093.19;;;16.16;64.56
72570;BME280;60594;50.204;8.844;2023-04-23T12:27:40;99088.38;;;16.11;63.41
72570;BME280;60594;50.204;8.844;2023-04-23T12:30:08;99090.78;;;16.21;62.12
72570;BME280;60594;50.204;8.844;2023-04-23T12:32:36;99090.97;;;16.34;64.18
72570;BME280;60594;50.204;8.844;2023-04-23T12:35:03;99088.38;;;16.40;59.88
72570;BME280;60594;50.204;8.844;2023-04-23T12:37:35;99096.50;;;16.76;65.98
72570;BME280;60594;50.204;8.844;2023-04-23T12:40:03;99079.97;;;16.94;67.31
72570;BME280;60594;50.204;8.844;2023-04-23T12:42:32;99088.22;;;16.92;68.87
72570;BME280;60594;50.204;8.844;2023-04-23T12:45:07;99082.03;;;16.77;69.19
72570;BME280;60594;50.204;8.844;2023-04-23T12:47:34;99088.34;;;16.69;70.20
72570;BME280;60594;50.204;8.844;2023-04-23T12:50:01;99087.31;;;16.85;69.92
72570;BME280;60594;50.204;8.844;2023-04-23T12:52:29;99076.34;;;17.08;66.74
72570;BME280;60594;50.204;8.844;2023-04-23T12:54:56;99061.38;;;17.20;68.83
72570;BME280;60594;50.204;8.844;2023-04-23T12:57:24;99052.66;;;17.18;66.60
72570;BME280;60594;50.204;8.844;2023-04-23T12:59:52;99044.75;;;17.16;68.32
72570;BME280;60594;50.204;8.844;2023-04-23T13:02:21;99036.81;;;17.29;68.90